Pagrindinis puslapis
METAR-TAF:

METAR-TAF

Oro uostai :

Nadoro oro uostas

Nadoras, Marokas

platuma: 34-59-20N, ilguma: 003-01-42W, Aukštis: 175 m

Dabartinis oras

Ataskaita buvo paskelbta 31 minutes, ne 03:00 UTC
Vėjas 2 kt nuo kintamojo kryptimis
Temperatūra 18°C
Drėgmė 83%
Slėgis 1010 hPa
Matomumas 10 km arba daugiau
Išsisklaidę debesys ne aukštis 1000 ft

METAR: GMMW 310300Z VRB02KT 9999 SCT010 18/15 Q1010 NOSIG

Laikas: 04:31 (03:31 UTC)

Prognozė

Ataskaita buvo paskelbta 4 valandos ir 31 minutes, ne 23:00 UTC
Prognozė galioja nuo 31 metu 00 UTC su 01 metu 06 UTC
Vėjas 5 kt iš Rytų/Pietryčių
Matomumas: 8000 m
Išsisklaidę debesys ne aukštis 1600 ft
Išsisklaidę debesys ne aukštis 2300 ft
Tikimybė 30% :
Laikinai
nuo 31 metu 06 UTC su 31 metu 12 UTC
Apsiniaukę ne aukštis 900 ft
Mažai debesys ne aukštis 3000 ft, Liūtiniai kamuoliniai debesys.
perkūnija, (silpnas

TAF: GMMW 302300Z 3100/0106 12005KT 8000 SCT016 SCT023 PROB30 TEMPO 3106/3112 -TS OVC009 FEW030CB

Orai ataskaitas ir orų prognozės (METAR, TAF).

turimą stotys yra geltonos ir raudonos taškus žemėlapyje.

Perkelti pele per norėdami pamatyti stoties vardą.

Tada spustelėkite, norėdami matyti oro stebėjimo ir prognozės.

Norėdami pakeisti žemėlapį: spustelėkite ant žalios mygtukų su juodo kryžiaus žemyn,; žalią mygtuką su brūkšneliu, jei norite nutolinti; arba žalių rodyklių gretimoms žemėlapius.


METAR-TAF: